Presidio of San Francisco, California
Current Conditions -  °F | °C
As of 6:56 PM on Thursday 27 Nov 2014 (Local Time) from KSFO Reporting Station
Clear Clear  
Wind Chill: 58°   Ceiling: Unl
Heat Index: 58°   Visibility: 8mi
Dew Point: 51°   Wind: 3mph
Humidity: 78%   Direction: 280°W
Pressure: 30.06"   Gusts: NA
Location:  37.7976°N, 122.466°W
Report Text: KSFO 280256Z 28003KT 8SM CLR 14/11 A3006 RMK AO2 SLP177 T01440106 55004
Loading
Personal Weather Stations






























Interactive Weather Map New forecast layout! Learn more

10-Day Weather Forecast

Advertisements
Track Severe Weather on mobile